Etusivu
METAR-TAF:

METAR-TAF

Lentoasemat :

Colville Lake, Luoteisterritoriot, Kanada

Leveyspiiri: 67-01-16N, Pituuspiiri: 126-07-43W, korkeus merenpinnasta: 274 m

Tämänhetkinen sää

Tämä raportti tehtiin 35 minuuttia sitten, kello 05.00 UTC
Tuuli 7 kn kaakosta
Lämpötila 23°C
Kosteus 47%
Ilmanpaine 1004 hPa
Näkyvyys: 14.5 km
selkeää

METAR: CYVL 140500Z AUTO 14007KT 9SM CLR 23/11 A2966 RMK SLP051 DENSITY ALT 2400FT

Aika: 23:35 (05:35 UTC)


TAF: puuttuu

Säähavainnot ja -ennusteet yli 4000 lentoasemalta (METAR- ja TAF-raportit).

Käytössä olevat sääasemat on merkitty karttaan keltaisilla ja punaisilla pisteillä.

Aseta hiiri pisteen päälle nähdäksesi sääaseman nimen.

Klikkaa sitten nähdäksesi säähavainnot ja -ennusteet.

Kartan vaihtaminen: klikkaa mustalla rastilla varustettuja vihreitä pisteitä, niin voit zoomata sisään; viivalla varustettua vihreää pistettä, niin voit zoomata ulos tai vihreitä nuolia, niin pääset viereisille kartoille.


METAR-TAF: